Time;durP1;ratioP1;P1;durP2;ratioP2;P2;SDS_P1;SDS_P2;PMS_P1;PMS_P2;Temp;Humidity;BMP_temperature;BMP_pressure;BME280_temperature;BME280_humidity;BME280_pressure;Samples;Min_cycle;Max_cycle;Signal;HPM_P1;HPM_P2
2022/08/24 00:02:06;;;;;;;62.78;55.97;;;19.20;99.90;;;;;;5016031;28;20038;-65
2022/08/24 00:04:32;;;;;;;61.80;53.28;;;19.20;99.90;;;;;;5040050;28;20409;-65
2022/08/24 00:06:59;;;;;;;60.97;53.38;;;19.30;99.90;;;;;;5018394;28;20045;-64
2022/08/24 00:09:25;;;;;;;60.35;51.17;;;19.30;99.90;;;;;;5040748;28;20460;-65
2022/08/24 00:11:51;;;;;;;55.38;49.60;;;19.00;99.90;;;;;;5018810;28;20057;-64
2022/08/24 00:14:17;;;;;;;54.35;48.13;;;19.00;99.90;;;;;;5021823;28;20050;-65
2022/08/24 00:16:42;;;;;;;61.80;53.45;;;18.90;99.90;;;;;;5017037;28;20126;-65
2022/08/24 00:19:09;;;;;;;56.40;50.28;;;18.90;99.90;;;;;;5040162;28;20082;-65
2022/08/24 00:21:35;;;;;;;54.03;47.72;;;18.80;99.90;;;;;;5025137;28;20057;-65
2022/08/24 00:24:01;;;;;;;54.97;48.65;;;18.80;99.90;;;;;;5038422;28;20044;-65
2022/08/24 00:26:27;;;;;;;53.65;47.90;;;18.80;99.90;;;;;;5036564;28;20042;-65
2022/08/24 00:28:53;;;;;;;60.28;52.63;;;19.00;99.90;;;;;;5037717;28;20052;-64
2022/08/24 00:31:18;;;;;;;63.53;55.33;;;19.00;99.90;;;;;;5040508;28;20042;-65
2022/08/24 00:33:44;;;;;;;58.13;51.60;;;19.00;99.90;;;;;;5018947;28;20101;-64
2022/08/24 00:36:10;;;;;;;59.40;51.10;;;19.00;99.90;;;;;;5041751;28;20581;-65
2022/08/24 00:38:36;;;;;;;59.25;52.13;;;19.00;99.90;;;;;;5021701;28;20042;-64
2022/08/24 00:41:03;;;;;;;61.58;52.10;;;18.90;99.90;;;;;;5011401;28;20131;-64
2022/08/24 00:43:29;;;;;;;65.00;55.55;;;18.80;99.90;;;;;;5014880;28;20105;-64
2022/08/24 00:46:13;;;;;;;58.80;52.08;;;18.80;99.90;;;;;;5032779;28;20050;-65
2022/08/24 00:48:43;;;;;;;55.90;49.63;;;18.60;99.90;;;;;;5021878;28;20180;-65
2022/08/24 00:51:25;;;;;;;57.88;48.53;;;18.80;99.90;;;;;;5028249;28;20045;-65
2022/08/24 00:53:57;;;;;;;60.47;51.53;;;18.60;99.90;;;;;;5047030;28;20386;-66
2022/08/24 00:56:31;;;;;;;56.45;48.70;;;18.50;99.90;;;;;;5038856;28;20049;-64
2022/08/24 00:59:02;;;;;;;64.18;53.47;;;18.50;99.90;;;;;;5029293;28;20042;-65
2022/08/24 01:01:30;;;;;;;64.78;54.03;;;18.40;99.90;;;;;;5034897;28;20083;-65
2022/08/24 01:03:57;;;;;;;67.07;54.47;;;18.40;99.90;;;;;;5032923;28;20041;-65
2022/08/24 01:06:23;;;;;;;70.25;57.47;;;18.40;99.90;;;;;;5050213;28;20120;-65
2022/08/24 01:08:49;;;;;;;64.13;53.28;;;18.30;99.90;;;;;;5047213;28;20097;-65
2022/08/24 01:11:20;;;;;;;70.65;57.72;;;18.30;99.90;;;;;;5045598;28;20042;-64
2022/08/24 01:13:48;;;;;;;61.42;51.63;;;18.40;99.90;;;;;;5052023;28;20045;-65
2022/08/24 01:18:48;;;;;;;58.40;50.90;;;18.30;99.90;;;;;;5029593;28;20056;-65
2022/08/24 01:19:02;;;;;;;56.50;48.03;;;17.60;99.90;;;;;;5050310;28;20069;-65
2022/08/24 01:21:35;;;;;;;54.85;45.17;;;18.10;99.90;;;;;;5033958;28;20107;-65
2022/08/24 01:24:10;;;;;;;52.30;45.15;;;17.90;99.90;;;;;;5052047;28;20042;-65
2022/08/24 01:26:45;;;;;;;54.85;47.75;;;17.80;99.90;;;;;;5031875;28;20049;-65
2022/08/24 01:29:24;;;;;;;61.70;47.78;;;17.70;99.90;;;;;;5053955;28;20480;-65
2022/08/24 01:31:50;;;;;;;53.83;46.00;;;17.60;99.90;;;;;;5044059;28;20071;-65
2022/08/24 01:34:16;;;;;;;57.58;47.78;;;17.70;99.90;;;;;;5043325;28;20053;-65
2022/08/24 01:36:48;;;;;;;60.92;52.20;;;17.50;99.90;;;;;;5042875;28;20448;-64
2022/08/24 01:39:15;;;;;;;57.67;48.80;;;17.60;99.90;;;;;;5039075;28;20053;-64
2022/08/24 01:41:41;;;;;;;59.13;48.53;;;17.60;99.90;;;;;;5062040;28;20108;-64
2022/08/24 01:44:08;;;;;;;70.43;46.83;;;17.60;99.90;;;;;;5040044;28;20041;-64
2022/08/24 01:46:34;;;;;;;55.22;49.28;;;17.60;99.90;;;;;;5036517;28;20068;-64
2022/08/24 01:49:00;;;;;;;57.45;50.50;;;17.60;99.90;;;;;;5040446;28;20107;-65
2022/08/24 01:51:30;;;;;;;59.85;49.72;;;17.70;99.90;;;;;;5036393;28;20486;-65
2022/08/24 01:53:57;;;;;;;55.88;47.40;;;17.70;99.90;;;;;;5018837;28;20111;-65
2022/08/24 01:56:22;;;;;;;54.53;47.67;;;17.60;99.90;;;;;;5011949;28;20092;-65
2022/08/24 01:58:48;;;;;;;55.95;47.42;;;17.50;99.90;;;;;;5038914;28;20057;-65
2022/08/24 02:01:16;;;;;;;55.22;46.83;;;17.40;99.90;;;;;;5034097;28;20050;-65
2022/08/24 02:03:42;;;;;;;54.47;47.30;;;17.40;99.90;;;;;;5017928;28;20061;-65
2022/08/24 02:06:08;;;;;;;51.50;44.25;;;17.30;99.90;;;;;;5028135;28;20061;-65
2022/08/24 02:08:35;;;;;;;52.13;46.50;;;17.10;99.90;;;;;;5040696;28;20096;-65
2022/08/24 02:11:10;;;;;;;50.38;45.03;;;17.20;99.90;;;;;;5039625;28;20053;-65
2022/08/24 02:13:38;;;;;;;57.80;47.60;;;17.20;99.90;;;;;;5005206;28;20079;-65
2022/08/24 02:16:05;;;;;;;56.10;46.58;;;17.20;99.90;;;;;;5019343;28;20053;-65
2022/08/24 02:18:32;;;;;;;62.67;53.65;;;17.20;99.90;;;;;;5022467;28;20080;-65
2022/08/24 02:20:59;;;;;;;52.38;42.50;;;17.40;99.90;;;;;;5018805;28;20618;-65
2022/08/24 02:23:24;;;;;;;58.22;47.58;;;17.30;99.90;;;;;;5018152;28;20057;-65
2022/08/24 02:25:51;;;;;;;61.20;52.00;;;17.40;99.90;;;;;;5036200;28;20030;-65
2022/08/24 02:28:17;;;;;;;55.85;47.35;;;17.30;99.90;;;;;;5040124;28;20061;-65
2022/08/24 02:30:43;;;;;;;61.00;47.53;;;17.30;99.90;;;;;;5016225;28;20113;-65
2022/08/24 02:33:08;;;;;;;51.20;43.08;;;17.30;99.90;;;;;;5033463;28;20062;-64
2022/08/24 02:35:34;;;;;;;60.42;46.95;;;17.30;99.90;;;;;;5041210;28;20041;-65
2022/08/24 02:38:00;;;;;;;57.83;45.05;;;17.20;99.90;;;;;;5035415;28;20042;-65
2022/08/24 02:40:26;;;;;;;52.88;44.78;;;17.10;99.90;;;;;;5034698;28;20042;-64
2022/08/24 02:42:52;;;;;;;53.53;44.20;;;17.10;99.90;;;;;;5021095;28;20041;-65
2022/08/24 02:45:18;;;;;;;55.22;43.42;;;17.10;99.90;;;;;;5002425;28;20661;-64
2022/08/24 02:47:44;;;;;;;86.05;62.58;;;17.00;99.90;;;;;;5019222;28;20051;-64
2022/08/24 02:50:13;;;;;;;68.53;57.20;;;16.80;99.90;;;;;;5032918;28;20088;-65
2022/08/24 02:52:40;;;;;;;44.80;39.97;;;16.80;99.90;;;;;;5025723;28;20525;-65
2022/08/24 02:55:10;;;;;;;84.75;65.38;;;16.70;99.90;;;;;;5043443;28;20075;-65
2022/08/24 02:57:37;;;;;;;67.03;54.53;;;16.80;99.90;;;;;;5035309;28;20485;-65
2022/08/24 03:00:07;;;;;;;64.35;51.97;;;16.70;99.90;;;;;;5051773;28;20041;-65
2022/08/24 03:02:32;;;;;;;56.92;46.60;;;16.80;99.90;;;;;;5041114;28;20128;-65
2022/08/24 03:04:58;;;;;;;59.50;50.17;;;16.80;99.90;;;;;;5037377;28;20132;-64
2022/08/24 03:07:24;;;;;;;64.15;51.38;;;16.90;99.90;;;;;;5036429;28;20041;-65
2022/08/24 03:09:49;;;;;;;59.75;48.63;;;17.00;99.90;;;;;;5033024;28;20045;-65
2022/08/24 03:12:17;;;;;;;67.28;55.95;;;17.10;99.90;;;;;;5052915;28;20101;-64
2022/08/24 03:14:42;;;;;;;70.75;56.35;;;17.20;99.90;;;;;;5024940;28;20048;-65
2022/08/24 03:17:09;;;;;;;72.13;58.00;;;17.20;99.90;;;;;;5025925;28;20791;-65
2022/08/24 03:19:35;;;;;;;66.05;53.88;;;17.00;99.90;;;;;;5025331;28;20045;-65
2022/08/24 03:22:01;;;;;;;63.63;51.80;;;17.00;99.90;;;;;;5055514;28;20043;-65
2022/08/24 03:24:27;;;;;;;56.85;46.95;;;16.90;99.90;;;;;;5036390;28;20048;-65
2022/08/24 03:26:53;;;;;;;58.63;48.10;;;16.80;99.90;;;;;;5043344;28;20068;-65
2022/08/24 03:29:18;;;;;;;65.15;52.92;;;16.80;99.90;;;;;;5056243;28;20053;-65
2022/08/24 03:31:44;;;;;;;57.08;47.17;;;16.80;99.90;;;;;;5040399;28;20049;-65
2022/08/24 03:34:12;;;;;;;60.38;48.80;;;16.80;99.90;;;;;;5060388;28;20045;-65
2022/08/24 03:36:39;;;;;;;62.17;47.97;;;16.90;99.90;;;;;;5054572;28;20120;-65
2022/08/24 03:39:05;;;;;;;61.53;48.83;;;16.80;99.90;;;;;;5039619;28;20097;-64
2022/08/24 03:41:31;;;;;;;57.50;47.38;;;16.70;99.90;;;;;;5037292;28;20057;-65
2022/08/24 03:43:57;;;;;;;53.28;43.22;;;16.80;99.90;;;;;;5058135;28;20079;-65
2022/08/24 03:46:27;;;;;;;55.00;45.50;;;16.70;99.90;;;;;;5047597;28;20038;-65
2022/08/24 03:48:57;;;;;;;58.30;48.75;;;16.60;99.90;;;;;;5062874;28;20059;-65
2022/08/24 03:51:26;;;;;;;72.45;57.30;;;16.60;99.90;;;;;;5037383;28;20110;-64
2022/08/24 03:53:53;;;;;;;65.07;53.10;;;16.60;99.90;;;;;;5037772;28;20057;-65
2022/08/24 03:56:19;;;;;;;60.28;48.95;;;16.60;99.90;;;;;;5044855;28;20049;-64
2022/08/24 03:58:45;;;;;;;62.88;49.20;;;16.60;99.90;;;;;;5045990;28;20064;-65
2022/08/24 04:01:11;;;;;;;54.33;43.35;;;16.60;99.90;;;;;;5055023;28;20048;-65
2022/08/24 04:03:42;;;;;;;56.05;44.85;;;16.60;99.90;;;;;;5041679;28;20045;-64
2022/08/24 04:06:08;;;;;;;63.58;50.70;;;16.50;99.90;;;;;;5036504;28;20102;-65
2022/08/24 04:08:34;;;;;;;63.92;49.60;;;16.40;99.90;;;;;;5026846;28;20047;-65
2022/08/24 04:11:01;;;;;;;60.42;48.70;;;16.30;99.90;;;;;;5034484;28;20073;-65
2022/08/24 04:13:30;;;;;;;72.32;56.38;;;16.30;99.90;;;;;;5057155;28;20501;-65
2022/08/24 04:15:57;;;;;;;63.25;49.95;;;16.30;99.90;;;;;;5043684;28;20034;-64
2022/08/24 04:18:23;;;;;;;65.80;52.30;;;16.30;99.90;;;;;;5028471;28;20053;-65
2022/08/24 04:20:49;;;;;;;69.30;52.38;;;16.30;99.90;;;;;;5043351;28;20083;-64
2022/08/24 04:23:15;;;;;;;71.00;54.38;;;16.40;99.90;;;;;;5066600;28;20102;-64
2022/08/24 04:25:48;;;;;;;66.93;51.80;;;16.50;99.90;;;;;;5050698;28;20425;-65
2022/08/24 04:28:17;;;;;;;65.60;53.15;;;16.50;99.90;;;;;;5040443;28;20051;-65
2022/08/24 04:30:45;;;;;;;59.35;50.70;;;16.60;99.90;;;;;;5035580;28;20042;-65
2022/08/24 04:33:13;;;;;;;58.42;48.95;;;16.60;99.90;;;;;;5032928;28;20052;-64
2022/08/24 04:35:40;;;;;;;53.38;44.15;;;16.60;99.90;;;;;;5038524;28;20037;-65
2022/08/24 04:38:07;;;;;;;42.45;37.05;;;16.50;99.90;;;;;;5054697;28;20041;-64
2022/08/24 04:40:33;;;;;;;40.33;35.03;;;16.50;99.90;;;;;;5038938;28;20053;-64
2022/08/24 04:43:00;;;;;;;40.92;32.75;;;16.30;99.90;;;;;;5041745;28;20053;-65
2022/08/24 04:45:27;;;;;;;38.38;32.42;;;16.10;99.90;;;;;;5043310;28;20096;-64
2022/08/24 04:47:53;;;;;;;39.33;32.30;;;15.90;99.90;;;;;;5039860;28;20045;-64
2022/08/24 04:50:19;;;;;;;37.20;31.95;;;15.80;99.90;;;;;;5042772;28;20101;-65
2022/08/24 04:52:44;;;;;;;37.78;32.20;;;15.70;99.90;;;;;;5045258;28;20083;-65
2022/08/24 04:55:11;;;;;;;42.72;36.58;;;15.70;99.90;;;;;;5016175;28;20050;-65
2022/08/24 04:57:37;;;;;;;51.85;38.70;;;15.70;99.90;;;;;;5001230;28;20050;-65
2022/08/24 05:00:04;;;;;;;58.30;45.45;;;15.80;99.90;;;;;;4960238;28;20057;-65
2022/08/24 05:02:30;;;;;;;51.85;42.22;;;15.90;99.90;;;;;;5020417;28;20108;-65
2022/08/24 05:04:58;;;;;;;59.13;45.42;;;16.00;99.90;;;;;;5035056;28;20069;-64
2022/08/24 05:07:24;;;;;;;52.10;41.65;;;16.10;99.90;;;;;;5024511;28;20095;-65
2022/08/24 05:09:50;;;;;;;47.38;39.38;;;16.10;99.90;;;;;;5012740;28;20053;-65
2022/08/24 05:12:16;;;;;;;66.90;51.70;;;16.20;99.90;;;;;;5003306;28;20046;-66
2022/08/24 05:14:41;;;;;;;68.35;50.25;;;16.40;99.90;;;;;;4998679;28;20046;-65
2022/08/24 05:17:07;;;;;;;68.00;49.63;;;16.40;99.90;;;;;;5021994;28;20072;-65
2022/08/24 05:19:33;;;;;;;65.22;49.78;;;16.60;99.90;;;;;;5022995;28;20042;-65
2022/08/24 05:21:59;;;;;;;65.47;50.63;;;16.60;99.90;;;;;;5020033;28;20041;-64
2022/08/24 05:24:25;;;;;;;63.85;49.78;;;16.70;99.90;;;;;;5016455;28;20050;-64
2022/08/24 05:26:51;;;;;;;70.03;51.92;;;16.70;99.90;;;;;;5022561;28;20105;-64
2022/08/24 05:29:17;;;;;;;58.92;47.80;;;16.80;99.90;;;;;;5020892;28;20038;-64
2022/08/24 05:31:45;;;;;;;69.47;50.47;;;16.80;99.90;;;;;;5025030;28;20060;-64
2022/08/24 05:34:11;;;;;;;76.18;50.70;;;16.90;99.90;;;;;;5029948;28;20046;-64
2022/08/24 05:36:39;;;;;;;77.10;53.75;;;17.00;99.90;;;;;;5009087;28;20052;-64
2022/08/24 05:39:10;;;;;;;71.35;54.28;;;17.10;99.90;;;;;;5026047;28;20045;-65
2022/08/24 05:41:39;;;;;;;89.30;64.07;;;17.20;99.90;;;;;;5010106;28;20061;-65
2022/08/24 05:44:05;;;;;;;90.68;64.05;;;17.30;99.90;;;;;;5030503;28;20049;-67
2022/08/24 05:46:31;;;;;;;85.03;63.45;;;17.30;99.90;;;;;;5012666;28;20042;-66
2022/08/24 05:48:58;;;;;;;86.45;63.17;;;17.40;99.90;;;;;;5025203;28;20470;-67
2022/08/24 05:51:24;;;;;;;86.82;63.60;;;17.50;99.90;;;;;;5010493;28;20049;-67
2022/08/24 05:53:50;;;;;;;92.30;65.32;;;17.50;99.90;;;;;;5042154;28;20057;-66
2022/08/24 05:56:17;;;;;;;90.38;65.97;;;17.60;99.90;;;;;;5025923;28;20595;-67
2022/08/24 05:58:44;;;;;;;98.97;67.40;;;17.70;99.90;;;;;;4995116;28;20093;-67
2022/08/24 06:01:13;;;;;;;92.35;66.97;;;17.80;99.90;;;;;;5016890;28;20057;-66
2022/08/24 06:03:39;;;;;;;95.00;69.55;;;17.90;99.90;;;;;;5022765;28;20051;-66
2022/08/24 06:06:07;;;;;;;83.85;62.58;;;17.90;99.90;;;;;;5025107;28;20042;-66
2022/08/24 06:08:41;;;;;;;88.47;63.97;;;18.00;99.90;;;;;;5026602;28;20046;-66
2022/08/24 06:11:08;;;;;;;89.05;66.72;;;18.10;99.90;;;;;;4997855;28;20049;-66
2022/08/24 06:13:34;;;;;;;85.32;62.05;;;18.20;99.90;;;;;;5041159;28;20052;-65
2022/08/24 06:16:12;;;;;;;94.38;68.22;;;18.20;99.90;;;;;;5011499;28;20049;-68
2022/08/24 06:18:39;;;;;;;97.00;67.88;;;18.30;99.90;;;;;;5029238;28;20501;-66
2022/08/24 06:21:11;;;;;;;105.32;74.07;;;18.40;99.90;;;;;;5019984;28;20121;-66
2022/08/24 06:23:39;;;;;;;108.47;77.05;;;18.60;99.90;;;;;;5030486;28;20081;-66
2022/08/24 06:28:52;;;;;;;105.85;75.80;;;18.70;99.90;;;;;;5020090;28;20052;-66
2022/08/24 06:31:18;;;;;;;97.75;70.70;;;18.90;99.90;;;;;;5041500;28;20042;-66
2022/08/24 06:33:44;;;;;;;95.22;68.30;;;18.90;99.90;;;;;;5049454;28;20072;-66
2022/08/24 06:36:10;;;;;;;94.07;67.25;;;19.00;99.90;;;;;;5015903;28;20115;-66
2022/08/24 06:38:36;;;;;;;89.45;65.70;;;19.10;99.90;;;;;;5055144;28;20033;-66
2022/08/24 06:41:02;;;;;;;89.68;64.35;;;19.20;99.90;;;;;;5010673;28;20045;-66
2022/08/24 06:43:28;;;;;;;82.70;62.50;;;19.20;99.90;;;;;;5055820;28;20037;-66
2022/08/24 06:45:55;;;;;;;91.88;71.03;;;19.30;99.90;;;;;;5016109;28;20088;-66
2022/08/24 06:48:21;;;;;;;96.35;66.63;;;19.30;99.90;;;;;;5031559;28;20674;-66
2022/08/24 06:50:47;;;;;;;85.63;65.70;;;19.40;99.90;;;;;;5038753;28;20064;-66
2022/08/24 06:53:13;;;;;;;93.75;66.72;;;19.40;99.90;;;;;;5024728;28;20065;-66
2022/08/24 06:55:51;;;;;;;99.80;70.97;;;19.50;99.90;;;;;;5007632;28;20073;-65
2022/08/24 06:58:17;;;;;;;102.57;74.90;;;19.70;99.90;;;;;;5012689;28;20057;-66
2022/08/24 07:00:43;;;;;;;102.45;74.68;;;19.70;99.90;;;;;;5009205;28;20054;-66
2022/08/24 07:03:09;;;;;;;116.97;79.97;;;19.80;99.90;;;;;;5021781;28;20054;-66
2022/08/24 07:05:35;;;;;;;109.38;79.50;;;19.80;99.90;;;;;;5009363;28;20049;-66
2022/08/24 07:08:02;;;;;;;109.72;78.32;;;19.90;99.90;;;;;;5003771;28;20046;-66
2022/08/24 07:10:29;;;;;;;101.35;73.97;;;19.90;99.90;;;;;;5008584;28;20123;-65
2022/08/24 07:12:55;;;;;;;96.20;75.20;;;20.10;99.90;;;;;;5021791;28;20061;-67
2022/08/24 07:15:21;;;;;;;101.85;74.20;;;20.10;99.90;;;;;;4994257;28;20053;-66
2022/08/24 07:17:46;;;;;;;97.70;70.13;;;20.20;99.90;;;;;;5019490;28;20041;-66
2022/08/24 07:20:13;;;;;;;85.90;69.78;;;20.20;99.90;;;;;;4995454;28;20116;-66
2022/08/24 07:22:39;;;;;;;85.43;67.72;;;20.40;99.90;;;;;;5005277;28;20042;-65
2022/08/24 07:25:06;;;;;;;76.03;60.65;;;20.40;99.90;;;;;;5015575;28;20084;-66
2022/08/24 07:27:33;;;;;;;65.40;54.90;;;20.50;99.90;;;;;;5024137;28;20066;-66
2022/08/24 07:29:58;;;;;;;68.10;56.95;;;20.50;99.90;;;;;;5004128;28;20061;-66
2022/08/24 07:32:24;;;;;;;69.68;58.55;;;20.50;99.90;;;;;;5013433;28;20064;-66
2022/08/24 07:34:50;;;;;;;65.10;51.60;;;20.60;99.90;;;;;;5010075;28;20059;-66
2022/08/24 07:37:16;;;;;;;47.92;42.63;;;20.70;99.90;;;;;;5003383;28;20144;-66
2022/08/24 07:39:41;;;;;;;54.00;44.65;;;20.70;99.90;;;;;;5021690;28;20060;-66
2022/08/24 07:42:07;;;;;;;52.60;45.42;;;20.70;99.90;;;;;;5026540;28;20037;-66
2022/08/24 07:44:34;;;;;;;54.92;44.00;;;20.80;99.90;;;;;;5009613;28;20058;-66
2022/08/24 07:47:00;;;;;;;43.53;37.45;;;20.80;99.90;;;;;;4999768;28;20112;-66
2022/08/24 07:49:26;;;;;;;46.58;36.72;;;20.80;99.90;;;;;;5027335;28;20265;-66
2022/08/24 07:51:52;;;;;;;35.95;30.70;;;20.90;99.90;;;;;;5002969;28;20045;-66
2022/08/24 07:54:19;;;;;;;36.78;27.27;;;21.00;99.90;;;;;;5032460;28;20053;-66
2022/08/24 07:56:45;;;;;;;33.80;30.15;;;21.10;99.90;;;;;;5058435;28;20044;-66
2022/08/24 07:59:11;;;;;;;29.35;26.23;;;21.20;99.90;;;;;;5026994;28;20079;-66
2022/08/24 08:01:37;;;;;;;31.70;27.08;;;21.20;99.90;;;;;;5043424;28;20045;-66
2022/08/24 08:04:04;;;;;;;28.90;23.42;;;21.30;99.90;;;;;;5041267;28;20064;-66
2022/08/24 08:06:29;;;;;;;29.45;24.50;;;21.40;99.90;;;;;;5037037;28;20150;-65
2022/08/24 08:08:55;;;;;;;27.77;22.95;;;21.40;99.90;;;;;;5028184;28;20462;-66
2022/08/24 08:11:21;;;;;;;27.67;24.75;;;21.60;99.90;;;;;;5045234;28;20087;-66
2022/08/24 08:13:48;;;;;;;23.08;19.73;;;21.60;99.90;;;;;;5041079;28;20413;-66
2022/08/24 08:16:14;;;;;;;14.52;12.43;;;21.70;99.90;;;;;;5024482;28;20066;-66
2022/08/24 08:18:40;;;;;;;16.05;14.07;;;21.80;99.90;;;;;;5027950;28;20041;-66
2022/08/24 08:24:13;;;;;;;24.05;18.30;;;21.90;99.90;;;;;;5032689;28;20056;-66
2022/08/24 08:26:36;;;;;;;20.52;18.08;;;22.00;99.90;;;;;;5020705;28;20076;-66
2022/08/24 08:29:02;;;;;;;22.27;19.98;;;22.10;99.90;;;;;;5028152;28;20077;-66
2022/08/24 08:31:27;;;;;;;20.35;17.75;;;22.20;99.90;;;;;;5016247;28;20088;-66
2022/08/24 08:33:53;;;;;;;24.27;21.42;;;22.30;99.90;;;;;;5045971;28;20281;-66
2022/08/24 08:36:21;;;;;;;23.02;19.30;;;22.30;99.90;;;;;;5011913;28;20056;-66
2022/08/24 08:38:47;;;;;;;16.45;13.68;;;22.40;99.90;;;;;;5023294;28;20110;-66
2022/08/24 08:41:18;;;;;;;20.50;18.30;;;22.40;99.90;;;;;;5033134;28;20045;-66
2022/08/24 08:43:59;;;;;;;22.05;19.85;;;22.40;99.90;;;;;;5045155;28;20405;-66
2022/08/24 08:46:46;;;;;;;21.65;19.08;;;22.60;99.90;;;;;;5052235;28;20107;-66
2022/08/24 08:49:24;;;;;;;23.48;19.10;;;22.60;99.90;;;;;;5025794;28;20062;-66
2022/08/24 08:52:05;;;;;;;21.45;16.85;;;22.60;99.90;;;;;;5015683;28;20506;-67
2022/08/24 08:54:39;;;;;;;21.20;16.35;;;22.70;99.90;;;;;;5033997;28;20043;-66
2022/08/24 08:57:29;;;;;;;22.02;14.82;;;22.70;99.90;;;;;;5038869;28;20057;-66
2022/08/24 09:00:13;;;;;;;19.75;14.68;;;22.80;99.90;;;;;;5009694;28;20140;-66
2022/08/24 09:02:57;;;;;;;16.38;14.10;;;22.80;99.90;;;;;;5035591;28;20045;-66
2022/08/24 09:05:50;;;;;;;15.52;11.55;;;22.90;99.90;;;;;;5025662;28;20135;-66
2022/08/24 09:08:56;;;;;;;18.42;15.60;;;23.00;99.90;;;;;;5044746;28;20053;-66
2022/08/24 09:11:31;;;;;;;24.23;18.88;;;23.10;99.90;;;;;;5010306;28;20053;-66
2022/08/24 09:14:15;;;;;;;21.40;17.92;;;23.20;99.90;;;;;;5037751;28;20046;-67
2022/08/24 09:17:18;;;;;;;20.90;18.80;;;23.30;99.90;;;;;;5037024;28;20049;-66
2022/08/24 09:19:59;;;;;;;20.65;17.80;;;23.40;99.90;;;;;;5015378;28;20046;-67
2022/08/24 09:22:25;;;;;;;19.38;15.35;;;23.50;99.90;;;;;;5039963;28;20170;-66
2022/08/24 09:24:53;;;;;;;18.60;15.68;;;23.60;99.90;;;;;;5038241;28;20082;-66
2022/08/24 09:27:18;;;;;;;17.83;14.32;;;23.70;99.90;;;;;;5042764;28;20049;-66
2022/08/24 09:29:58;;;;;;;12.82;11.35;;;23.70;99.90;;;;;;5018674;28;20132;-67
2022/08/24 09:32:34;;;;;;;14.25;12.75;;;23.70;99.90;;;;;;5036375;28;20048;-66
2022/08/24 09:35:07;;;;;;;16.60;11.02;;;23.70;99.90;;;;;;5030906;28;20086;-65
2022/08/24 09:37:38;;;;;;;17.58;12.80;;;23.90;99.90;;;;;;5037184;28;20065;-65
2022/08/24 09:40:35;;;;;;;21.83;16.90;;;23.90;99.90;;;;;;5040857;28;20072;-65
2022/08/24 09:43:40;;;;;;;16.92;14.00;;;24.00;99.90;;;;;;5047366;28;20128;-66
2022/08/24 09:46:09;;;;;;;16.58;13.60;;;24.00;99.90;;;;;;5053492;28;20083;-65
2022/08/24 09:48:49;;;;;;;14.93;13.00;;;24.10;99.90;;;;;;5034451;28;20037;-65
2022/08/24 09:51:46;;;;;;;18.02;13.20;;;24.10;99.90;;;;;;5038224;28;20069;-65
2022/08/24 09:54:38;;;;;;;14.32;10.40;;;24.20;99.90;;;;;;5031098;28;20085;-65
2022/08/24 09:57:27;;;;;;;16.77;12.23;;;24.20;99.90;;;;;;5029673;28;20037;-65
2022/08/24 10:00:12;;;;;;;15.80;12.60;;;24.30;99.90;;;;;;5030241;28;20461;-65
2022/08/24 10:02:55;;;;;;;14.50;10.60;;;24.40;99.90;;;;;;5047484;28;20052;-65
2022/08/24 10:05:38;;;;;;;12.55;10.77;;;24.40;99.90;;;;;;5052680;28;20059;-65
2022/08/24 10:08:13;;;;;;;13.75;10.57;;;24.60;99.90;;;;;;5047660;28;20045;-65
2022/08/24 10:10:43;;;;;;;13.13;10.90;;;24.80;99.90;;;;;;5029963;28;20068;-64
2022/08/24 10:13:09;;;;;;;18.08;12.63;;;24.80;99.90;;;;;;5039498;28;20081;-65
2022/08/24 10:16:11;;;;;;;17.13;11.70;;;24.80;99.90;;;;;;5037654;28;20052;-64
2022/08/24 10:18:59;;;;;;;12.80;10.90;;;25.00;99.90;;;;;;5042029;28;20049;-65
2022/08/24 10:21:40;;;;;;;18.85;11.32;;;25.10;99.90;;;;;;5066209;28;20130;-65
2022/08/24 10:24:28;;;;;;;14.63;11.52;;;25.20;99.90;;;;;;5037787;28;20033;-65
2022/08/24 10:27:14;;;;;;;16.13;8.63;;;25.40;99.90;;;;;;5044424;28;20056;-65
2022/08/24 10:30:07;;;;;;;10.75;8.70;;;25.30;99.90;;;;;;5051215;28;20037;-68
2022/08/24 10:32:51;;;;;;;12.35;10.40;;;25.40;99.90;;;;;;5051047;28;20045;-65
2022/08/24 10:35:26;;;;;;;15.23;10.20;;;25.40;99.90;;;;;;5027287;28;20053;-65
2022/08/24 10:41:18;;;;;;;11.45;9.48;;;25.60;99.90;;;;;;5040270;28;20059;-65
2022/08/24 10:44:02;;;;;;;11.98;9.05;;;25.70;99.90;;;;;;5041561;28;20047;-65
2022/08/24 10:46:51;;;;;;;12.38;8.57;;;25.90;99.90;;;;;;5051912;28;20040;-65
2022/08/24 10:50:01;;;;;;;11.30;8.57;;;26.00;99.90;;;;;;5057069;28;20112;-65
2022/08/24 10:52:45;;;;;;;8.70;7.43;;;26.10;99.90;;;;;;5015749;28;20053;-65
2022/08/24 10:55:33;;;;;;;11.07;7.10;;;26.10;99.90;;;;;;5015584;28;20088;-65
2022/08/24 10:58:28;;;;;;;12.95;8.07;;;26.10;99.90;;;;;;5023903;28;20133;-65
2022/08/24 11:00:54;;;;;;;10.05;6.90;;;26.20;99.90;;;;;;5021193;28;20060;-64
2022/08/24 11:03:25;;;;;;;9.00;6.63;;;26.30;99.90;;;;;;5019554;28;20052;-66
2022/08/24 11:05:54;;;;;;;8.45;6.50;;;26.30;99.90;;;;;;5025676;28;20041;-67
2022/08/24 11:08:23;;;;;;;10.38;7.20;;;26.30;99.90;;;;;;5044162;28;20103;-66
2022/08/24 11:11:29;;;;;;;9.20;6.10;;;26.30;99.90;;;;;;5011230;28;20341;-66
2022/08/24 11:14:04;;;;;;;10.18;6.55;;;26.20;99.90;;;;;;4978581;28;20421;-66
2022/08/24 11:16:44;;;;;;;9.18;5.63;;;26.20;99.90;;;;;;4964583;28;20335;-66
2022/08/24 11:19:34;;;;;;;7.47;6.72;;;26.20;99.90;;;;;;4969840;28;20046;-66
2022/08/24 11:22:03;;;;;;;11.75;6.97;;;26.40;99.90;;;;;;4973503;28;20134;-65
2022/08/24 11:24:46;;;;;;;9.80;5.32;;;26.60;99.90;;;;;;4981672;28;20062;-66
2022/08/24 11:27:17;;;;;;;9.73;5.43;;;26.70;99.90;;;;;;4962157;28;20059;-66
2022/08/24 11:29:48;;;;;;;5.22;4.55;;;26.80;99.90;;;;;;4961778;28;20050;-66
2022/08/24 11:32:38;;;;;;;6.47;4.85;;;26.80;99.90;;;;;;4970810;28;20055;-66
2022/08/24 11:35:22;;;;;;;7.75;4.55;;;26.90;99.90;;;;;;4973873;28;20038;-66
2022/08/24 11:37:50;;;;;;;8.65;5.07;;;26.90;99.90;;;;;;4972372;28;20053;-66
2022/08/24 11:40:19;;;;;;;5.47;3.80;;;26.90;99.90;;;;;;4967169;28;20179;-67
2022/08/24 11:43:09;;;;;;;6.85;4.63;;;26.80;99.90;;;;;;4970838;28;20057;-66
2022/08/24 11:45:43;;;;;;;9.43;5.85;;;26.80;99.90;;;;;;4981974;28;20054;-67
2022/08/24 11:48:28;;;;;;;9.13;5.60;;;26.90;99.90;;;;;;4970886;28;20108;-67
2022/08/24 11:51:12;;;;;;;7.43;4.15;;;26.90;99.90;;;;;;5016561;28;20053;-66
2022/08/24 11:53:55;;;;;;;4.40;3.95;;;27.00;99.90;;;;;;5016620;28;20072;-66
2022/08/24 11:56:39;;;;;;;5.55;4.10;;;27.30;99.90;;;;;;5005456;28;20046;-66
2022/08/24 11:59:22;;;;;;;5.68;3.85;;;27.40;99.90;;;;;;5030092;28;20053;-66
2022/08/24 12:01:57;;;;;;;5.53;3.85;;;27.40;99.90;;;;;;5031640;28;20049;-66
2022/08/24 12:04:48;;;;;;;6.88;4.43;;;27.60;99.90;;;;;;5029059;28;20037;-66
2022/08/24 12:07:34;;;;;;;3.72;3.05;;;27.70;99.90;;;;;;5012306;28;20504;-66
2022/08/24 12:10:36;;;;;;;7.32;3.90;;;27.90;99.90;;;;;;5040049;28;20041;-70
2022/08/24 12:13:05;;;;;;;5.88;3.25;;;28.10;99.90;;;;;;5022126;28;20057;-66
2022/08/24 12:15:53;;;;;;;5.13;3.65;;;28.20;99.90;;;;;;5033660;28;20036;-66
2022/08/24 12:18:59;;;;;;;5.10;3.42;;;28.20;99.90;;;;;;5045118;28;20049;-67
2022/08/24 12:21:31;;;;;;;3.78;3.13;;;28.30;99.90;;;;;;5013592;28;20064;-66
2022/08/24 12:24:07;;;;;;;5.78;3.67;;;28.30;99.90;;;;;;5030941;28;20048;-66
2022/08/24 12:26:47;;;;;;;6.00;3.03;;;28.40;99.90;;;;;;5014636;28;20276;-66
2022/08/24 12:29:27;;;;;;;5.47;3.40;;;28.50;99.90;;;;;;5036254;28;20045;-65
2022/08/24 12:31:58;;;;;;;6.63;3.33;;;28.30;99.90;;;;;;5038781;28;20065;-66
2022/08/24 12:34:39;;;;;;;6.28;3.10;;;28.20;99.90;;;;;;5010282;28;20058;-67
2022/08/24 12:37:16;;;;;;;6.60;3.25;;;28.20;99.90;;;;;;5010534;28;20095;-66
2022/08/24 12:39:54;;;;;;;5.13;3.35;;;28.20;99.90;;;;;;5052855;28;20046;-66
2022/08/24 12:42:39;;;;;;;3.30;3.00;;;28.10;99.90;;;;;;5036985;28;20065;-65
2022/08/24 12:45:10;;;;;;;7.18;3.15;;;28.20;99.90;;;;;;5035725;28;20057;-66
2022/08/24 12:47:44;;;;;;;5.45;2.90;;;28.30;99.90;;;;;;5030505;28;20034;-67
2022/08/24 12:50:19;;;;;;;6.45;2.83;;;28.50;99.90;;;;;;5027250;28;20044;-67
2022/08/24 12:53:11;;;;;;;4.88;2.70;;;28.50;99.90;;;;;;5023964;28;20064;-66
2022/08/24 12:56:16;;;;;;;4.03;2.90;;;28.60;99.90;;;;;;5056414;28;20064;-66
2022/08/24 12:58:50;;;;;;;5.50;2.67;;;28.50;99.90;;;;;;5065038;28;20086;-67
2022/08/24 13:01:18;;;;;;;4.63;2.70;;;28.40;99.90;;;;;;5066809;28;20469;-66
2022/08/24 13:03:46;;;;;;;4.47;2.95;;;28.40;99.90;;;;;;5058274;28;20037;-67